sensor_id;sensor_type;location;lat;lon;timestamp;pressure;altitude;pressure_sealevel;temperature;humidity
56270;BME280;42176;43.240;27.880;2023-06-05T00:00:37;100630.28;;;14.53;76.03
56270;BME280;42176;43.240;27.880;2023-06-05T00:03:03;100635.63;;;14.53;76.31
56270;BME280;42176;43.240;27.880;2023-06-05T00:05:28;100629.44;;;14.51;76.49
56270;BME280;42176;43.240;27.880;2023-06-05T00:07:54;100625.94;;;14.50;76.54
56270;BME280;42176;43.240;27.880;2023-06-05T00:10:20;100628.69;;;14.47;76.97
56270;BME280;42176;43.240;27.880;2023-06-05T00:12:46;100634.94;;;14.46;76.90
56270;BME280;42176;43.240;27.880;2023-06-05T00:15:12;100636.75;;;14.45;77.13
56270;BME280;42176;43.240;27.880;2023-06-05T00:17:37;100630.66;;;14.40;77.74
56270;BME280;42176;43.240;27.880;2023-06-05T00:20:04;100625.50;;;14.34;78.33
56270;BME280;42176;43.240;27.880;2023-06-05T00:22:31;100619.25;;;14.35;78.42
56270;BME280;42176;43.240;27.880;2023-06-05T00:24:57;100619.38;;;14.30;78.78
56270;BME280;42176;43.240;27.880;2023-06-05T00:27:23;100622.13;;;14.29;78.96
56270;BME280;42176;43.240;27.880;2023-06-05T00:29:49;100624.72;;;14.30;78.91
56270;BME280;42176;43.240;27.880;2023-06-05T00:32:15;100625.69;;;14.28;78.75
56270;BME280;42176;43.240;27.880;2023-06-05T00:34:40;100625.78;;;14.25;78.85
56270;BME280;42176;43.240;27.880;2023-06-05T00:37:06;100623.34;;;14.17;78.96
56270;BME280;42176;43.240;27.880;2023-06-05T00:39:32;100618.28;;;14.08;79.28
56270;BME280;42176;43.240;27.880;2023-06-05T00:41:58;100620.97;;;14.06;79.70
56270;BME280;42176;43.240;27.880;2023-06-05T00:44:24;100624.69;;;14.00;80.16
56270;BME280;42176;43.240;27.880;2023-06-05T00:46:51;100608.75;;;13.99;80.28
56270;BME280;42176;43.240;27.880;2023-06-05T00:49:18;100614.09;;;13.99;80.47
56270;BME280;42176;43.240;27.880;2023-06-05T00:51:45;100596.56;;;13.90;80.34
56270;BME280;42176;43.240;27.880;2023-06-05T00:54:12;100610.50;;;14.00;80.27
56270;BME280;42176;43.240;27.880;2023-06-05T00:56:40;100609.47;;;14.04;79.55
56270;BME280;42176;43.240;27.880;2023-06-05T00:59:07;100587.53;;;13.96;79.11
56270;BME280;42176;43.240;27.880;2023-06-05T01:01:32;100601.41;;;14.07;78.96
56270;BME280;42176;43.240;27.880;2023-06-05T01:04:00;100608.41;;;14.11;78.40
56270;BME280;42176;43.240;27.880;2023-06-05T01:06:27;100609.09;;;14.18;77.53
56270;BME280;42176;43.240;27.880;2023-06-05T01:08:53;100603.69;;;14.20;77.08
56270;BME280;42176;43.240;27.880;2023-06-05T01:14:14;100600.03;;;14.24;75.84
56270;BME280;42176;43.240;27.880;2023-06-05T01:16:41;100601.88;;;14.22;75.17
56270;BME280;42176;43.240;27.880;2023-06-05T01:19:13;100607.25;;;14.20;75.15
56270;BME280;42176;43.240;27.880;2023-06-05T01:21:40;100604.63;;;14.19;75.08
56270;BME280;42176;43.240;27.880;2023-06-05T01:24:06;100601.94;;;14.19;74.99
56270;BME280;42176;43.240;27.880;2023-06-05T01:29:24;100594.16;;;14.12;75.45
56270;BME280;42176;43.240;27.880;2023-06-05T01:31:55;100599.44;;;14.14;75.67
56270;BME280;42176;43.240;27.880;2023-06-05T01:34:23;100602.19;;;14.11;75.90
56270;BME280;42176;43.240;27.880;2023-06-05T01:36:52;100598.81;;;14.04;76.19
56270;BME280;42176;43.240;27.880;2023-06-05T01:39:21;100599.03;;;13.96;77.09
56270;BME280;42176;43.240;27.880;2023-06-05T01:41:48;100606.97;;;13.99;77.10
56270;BME280;42176;43.240;27.880;2023-06-05T01:44:15;100603.59;;;13.93;78.17
56270;BME280;42176;43.240;27.880;2023-06-05T01:46:41;100607.94;;;13.97;78.32
56270;BME280;42176;43.240;27.880;2023-06-05T01:49:07;100604.38;;;13.96;78.73
56270;BME280;42176;43.240;27.880;2023-06-05T01:51:33;100606.25;;;13.93;78.75
56270;BME280;42176;43.240;27.880;2023-06-05T01:54:00;100614.25;;;13.93;78.32
56270;BME280;42176;43.240;27.880;2023-06-05T01:56:25;100612.50;;;13.92;78.47
56270;BME280;42176;43.240;27.880;2023-06-05T01:58:51;100608.84;;;13.96;78.45
56270;BME280;42176;43.240;27.880;2023-06-05T02:01:18;100609.69;;;13.98;78.51
56270;BME280;42176;43.240;27.880;2023-06-05T02:03:48;100601.75;;;13.95;78.20
56270;BME280;42176;43.240;27.880;2023-06-05T02:06:16;100591.03;;;13.98;77.32
56270;BME280;42176;43.240;27.880;2023-06-05T02:08:42;100603.16;;;14.08;77.22
56270;BME280;42176;43.240;27.880;2023-06-05T02:11:08;100598.72;;;14.09;77.04
56270;BME280;42176;43.240;27.880;2023-06-05T02:13:39;100604.81;;;14.12;76.68
56270;BME280;42176;43.240;27.880;2023-06-05T02:16:07;100597.66;;;14.14;76.60
56270;BME280;42176;43.240;27.880;2023-06-05T02:18:33;100606.44;;;14.18;76.13
56270;BME280;42176;43.240;27.880;2023-06-05T02:21:03;100594.16;;;14.12;75.71
56270;BME280;42176;43.240;27.880;2023-06-05T02:23:28;100602.88;;;14.18;75.80
56270;BME280;42176;43.240;27.880;2023-06-05T02:25:54;100606.34;;;14.21;75.38
56270;BME280;42176;43.240;27.880;2023-06-05T02:28:19;100599.28;;;14.19;75.01
56270;BME280;42176;43.240;27.880;2023-06-05T02:30:45;100608.31;;;14.14;75.06
56270;BME280;42176;43.240;27.880;2023-06-05T02:33:13;100612.72;;;14.15;75.14
56270;BME280;42176;43.240;27.880;2023-06-05T02:35:40;100615.28;;;14.19;75.08
56270;BME280;42176;43.240;27.880;2023-06-05T02:38:09;100625.78;;;14.25;75.10
56270;BME280;42176;43.240;27.880;2023-06-05T02:40:38;100616.88;;;14.26;74.68
56270;BME280;42176;43.240;27.880;2023-06-05T02:43:03;100628.31;;;14.29;74.23
56270;BME280;42176;43.240;27.880;2023-06-05T02:45:33;100631.88;;;14.30;73.99
56270;BME280;42176;43.240;27.880;2023-06-05T02:47:58;100629.00;;;14.36;73.23
56270;BME280;42176;43.240;27.880;2023-06-05T02:50:24;100629.81;;;14.38;72.79
56270;BME280;42176;43.240;27.880;2023-06-05T02:52:50;100628.75;;;14.45;72.22
56270;BME280;42176;43.240;27.880;2023-06-05T02:55:15;100631.34;;;14.47;72.43
56270;BME280;42176;43.240;27.880;2023-06-05T02:57:42;100627.84;;;14.45;72.78
56270;BME280;42176;43.240;27.880;2023-06-05T03:00:09;100631.25;;;14.50;73.59
56270;BME280;42176;43.240;27.880;2023-06-05T03:02:35;100629.50;;;14.49;73.62
56270;BME280;42176;43.240;27.880;2023-06-05T03:05:03;100628.38;;;14.56;73.80
56270;BME280;42176;43.240;27.880;2023-06-05T03:07:29;100625.94;;;14.50;73.89
56270;BME280;42176;43.240;27.880;2023-06-05T03:09:56;100640.88;;;14.56;74.34
56270;BME280;42176;43.240;27.880;2023-06-05T03:12:21;100637.38;;;14.54;74.23
56270;BME280;42176;43.240;27.880;2023-06-05T03:14:46;100642.69;;;14.54;74.83
56270;BME280;42176;43.240;27.880;2023-06-05T03:17:12;100647.19;;;14.53;74.82
56270;BME280;42176;43.240;27.880;2023-06-05T03:19:37;100640.72;;;14.60;74.46
56270;BME280;42176;43.240;27.880;2023-06-05T03:22:03;100638.94;;;14.91;72.98
56270;BME280;42176;43.240;27.880;2023-06-05T03:24:30;100644.44;;;15.40;71.03
56270;BME280;42176;43.240;27.880;2023-06-05T03:26:55;100638.78;;;15.75;69.03
56270;BME280;42176;43.240;27.880;2023-06-05T03:29:21;100643.47;;;16.19;66.00
56270;BME280;42176;43.240;27.880;2023-06-05T03:31:46;100644.69;;;16.57;63.92
56270;BME280;42176;43.240;27.880;2023-06-05T03:34:12;100639.66;;;16.96;61.83
56270;BME280;42176;43.240;27.880;2023-06-05T03:36:37;100647.78;;;17.37;59.49
56270;BME280;42176;43.240;27.880;2023-06-05T03:39:05;100643.31;;;17.79;57.99
56270;BME280;42176;43.240;27.880;2023-06-05T03:41:32;100623.34;;;18.07;56.29
56270;BME280;42176;43.240;27.880;2023-06-05T03:43:57;100643.38;;;18.57;54.82
56270;BME280;42176;43.240;27.880;2023-06-05T03:46:23;100644.81;;;19.02;52.95
56270;BME280;42176;43.240;27.880;2023-06-05T03:48:49;100655.78;;;19.35;51.84
56270;BME280;42176;43.240;27.880;2023-06-05T03:51:18;100634.44;;;19.67;50.50
56270;BME280;42176;43.240;27.880;2023-06-05T03:53:45;100632.72;;;20.17;49.48
56270;BME280;42176;43.240;27.880;2023-06-05T03:56:10;100635.38;;;20.50;48.45
56270;BME280;42176;43.240;27.880;2023-06-05T03:58:37;100626.19;;;20.87;47.31
56270;BME280;42176;43.240;27.880;2023-06-05T04:01:04;100638.50;;;21.23;46.54
56270;BME280;42176;43.240;27.880;2023-06-05T04:03:31;100641.34;;;21.66;45.94
56270;BME280;42176;43.240;27.880;2023-06-05T04:05:57;100641.19;;;21.98;45.24
56270;BME280;42176;43.240;27.880;2023-06-05T04:08:22;100647.50;;;22.28;45.40
56270;BME280;42176;43.240;27.880;2023-06-05T04:10:48;100646.03;;;22.65;45.16
56270;BME280;42176;43.240;27.880;2023-06-05T04:13:13;100650.63;;;22.78;45.07
56270;BME280;42176;43.240;27.880;2023-06-05T04:15:39;100648.22;;;23.15;43.77
56270;BME280;42176;43.240;27.880;2023-06-05T04:18:04;100647.59;;;23.52;43.92
56270;BME280;42176;43.240;27.880;2023-06-05T04:20:30;100637.56;;;23.93;42.22
56270;BME280;42176;43.240;27.880;2023-06-05T04:22:56;100638.00;;;24.25;42.00
56270;BME280;42176;43.240;27.880;2023-06-05T04:25:21;100645.75;;;24.56;41.31
56270;BME280;42176;43.240;27.880;2023-06-05T04:27:48;100652.94;;;24.94;40.41
56270;BME280;42176;43.240;27.880;2023-06-05T04:30:15;100660.72;;;25.23;40.02
56270;BME280;42176;43.240;27.880;2023-06-05T04:32:41;100649.19;;;25.32;39.08
56270;BME280;42176;43.240;27.880;2023-06-05T04:35:07;100666.91;;;25.49;38.91
56270;BME280;42176;43.240;27.880;2023-06-05T04:37:34;100662.78;;;26.15;37.52
56270;BME280;42176;43.240;27.880;2023-06-05T04:40:03;100661.06;;;26.59;36.40
56270;BME280;42176;43.240;27.880;2023-06-05T04:42:35;100656.81;;;26.89;35.62
56270;BME280;42176;43.240;27.880;2023-06-05T04:45:03;100666.56;;;27.36;34.30
56270;BME280;42176;43.240;27.880;2023-06-05T04:47:30;100677.34;;;27.70;34.02
56270;BME280;42176;43.240;27.880;2023-06-05T04:50:00;100671.78;;;28.03;32.99
56270;BME280;42176;43.240;27.880;2023-06-05T04:52:29;100665.41;;;28.35;32.58
56270;BME280;42176;43.240;27.880;2023-06-05T04:54:55;100673.59;;;28.76;31.89
56270;BME280;42176;43.240;27.880;2023-06-05T04:57:20;100679.44;;;29.12;32.45
56270;BME280;42176;43.240;27.880;2023-06-05T04:59:46;100675.00;;;29.50;31.02
56270;BME280;42176;43.240;27.880;2023-06-05T05:02:12;100676.84;;;29.99;29.13
56270;BME280;42176;43.240;27.880;2023-06-05T05:04:37;100681.91;;;30.31;29.09
56270;BME280;42176;43.240;27.880;2023-06-05T05:07:03;100671.69;;;30.71;28.25
56270;BME280;42176;43.240;27.880;2023-06-05T05:09:30;100688.19;;;31.07;27.99
56270;BME280;42176;43.240;27.880;2023-06-05T05:11:58;100689.09;;;31.44;27.59
56270;BME280;42176;43.240;27.880;2023-06-05T05:14:25;100690.03;;;31.53;28.13
56270;BME280;42176;43.240;27.880;2023-06-05T05:16:54;100695.38;;;31.08;27.62
56270;BME280;42176;43.240;27.880;2023-06-05T05:19:20;100685.31;;;31.63;27.16
56270;BME280;42176;43.240;27.880;2023-06-05T05:21:47;100692.44;;;31.20;27.16
56270;BME280;42176;43.240;27.880;2023-06-05T05:24:13;100683.44;;;31.46;27.21
56270;BME280;42176;43.240;27.880;2023-06-05T05:26:39;100694.13;;;31.93;25.69
56270;BME280;42176;43.240;27.880;2023-06-05T05:29:07;100691.72;;;32.16;25.64
56270;BME280;42176;43.240;27.880;2023-06-05T05:31:33;100695.09;;;30.56;26.54
56270;BME280;42176;43.240;27.880;2023-06-05T05:33:58;100705.00;;;30.09;26.05
56270;BME280;42176;43.240;27.880;2023-06-05T05:36:25;100700.38;;;30.95;24.57
56270;BME280;42176;43.240;27.880;2023-06-05T05:38:51;100695.59;;;31.25;25.32
56270;BME280;42176;43.240;27.880;2023-06-05T05:41:17;100700.03;;;31.44;24.56
56270;BME280;42176;43.240;27.880;2023-06-05T05:43:42;100694.59;;;32.33;23.76
56270;BME280;42176;43.240;27.880;2023-06-05T05:46:07;100708.06;;;31.73;23.50
56270;BME280;42176;43.240;27.880;2023-06-05T05:48:36;100698.06;;;30.25;25.98
56270;BME280;42176;43.240;27.880;2023-06-05T05:51:02;100703.00;;;31.51;24.82
56270;BME280;42176;43.240;27.880;2023-06-05T05:53:27;100699.28;;;31.96;24.12
56270;BME280;42176;43.240;27.880;2023-06-05T05:55:53;100710.38;;;32.13;23.57
56270;BME280;42176;43.240;27.880;2023-06-05T05:58:19;100707.47;;;31.52;23.89
56270;BME280;42176;43.240;27.880;2023-06-05T06:00:45;100697.38;;;31.16;24.43
56270;BME280;42176;43.240;27.880;2023-06-05T06:03:10;100691.13;;;30.30;25.06
56270;BME280;42176;43.240;27.880;2023-06-05T06:05:36;100680.81;;;30.90;24.94
56270;BME280;42176;43.240;27.880;2023-06-05T06:08:03;100693.41;;;30.82;24.66
56270;BME280;42176;43.240;27.880;2023-06-05T06:10:29;100702.66;;;30.34;24.61
56270;BME280;42176;43.240;27.880;2023-06-05T06:12:55;100695.81;;;30.10;25.40
56270;BME280;42176;43.240;27.880;2023-06-05T06:15:21;100698.09;;;30.52;24.43
56270;BME280;42176;43.240;27.880;2023-06-05T06:17:47;100687.06;;;31.28;23.17
56270;BME280;42176;43.240;27.880;2023-06-05T06:20:12;100684.31;;;31.00;23.38
56270;BME280;42176;43.240;27.880;2023-06-05T06:22:39;100689.63;;;31.48;21.77
56270;BME280;42176;43.240;27.880;2023-06-05T06:25:06;100684.66;;;30.97;21.89
56270;BME280;42176;43.240;27.880;2023-06-05T06:27:31;100674.94;;;28.91;23.96
56270;BME280;42176;43.240;27.880;2023-06-05T06:29:57;100677.50;;;28.83;24.00
56270;BME280;42176;43.240;27.880;2023-06-05T06:32:24;100676.97;;;28.58;24.67
56270;BME280;42176;43.240;27.880;2023-06-05T06:34:51;100679.94;;;28.86;23.24
56270;BME280;42176;43.240;27.880;2023-06-05T06:37:19;100695.56;;;29.35;23.83
56270;BME280;42176;43.240;27.880;2023-06-05T06:39:46;100683.38;;;30.91;21.74
56270;BME280;42176;43.240;27.880;2023-06-05T06:42:12;100697.78;;;31.76;20.74
56270;BME280;42176;43.240;27.880;2023-06-05T06:44:40;100699.75;;;32.36;20.39
56270;BME280;42176;43.240;27.880;2023-06-05T06:47:06;100666.53;;;32.82;20.17
56270;BME280;42176;43.240;27.880;2023-06-05T06:49:33;100691.34;;;31.85;21.07
56270;BME280;42176;43.240;27.880;2023-06-05T06:52:00;100698.22;;;32.42;20.35
56270;BME280;42176;43.240;27.880;2023-06-05T06:54:25;100694.50;;;33.62;18.75
56270;BME280;42176;43.240;27.880;2023-06-05T06:56:54;100697.06;;;34.69;18.42
56270;BME280;42176;43.240;27.880;2023-06-05T06:59:19;100700.38;;;33.92;18.82
56270;BME280;42176;43.240;27.880;2023-06-05T07:01:46;100708.25;;;32.51;18.36
56270;BME280;42176;43.240;27.880;2023-06-05T07:04:15;100705.84;;;33.75;18.08
56270;BME280;42176;43.240;27.880;2023-06-05T07:06:45;100713.50;;;33.30;17.65
56270;BME280;42176;43.240;27.880;2023-06-05T07:09:11;100719.19;;;32.25;18.73
56270;BME280;42176;43.240;27.880;2023-06-05T07:11:36;100691.06;;;32.84;18.66
56270;BME280;42176;43.240;27.880;2023-06-05T07:14:02;100703.16;;;32.12;19.49
56270;BME280;42176;43.240;27.880;2023-06-05T07:16:27;100712.50;;;32.45;19.52
56270;BME280;42176;43.240;27.880;2023-06-05T07:18:53;100694.50;;;33.62;18.85
56270;BME280;42176;43.240;27.880;2023-06-05T07:21:20;100699.97;;;30.90;21.71
56270;BME280;42176;43.240;27.880;2023-06-05T07:23:49;100712.63;;;32.17;19.62
56270;BME280;42176;43.240;27.880;2023-06-05T07:26:17;100693.28;;;32.19;20.06
56270;BME280;42176;43.240;27.880;2023-06-05T07:28:43;100693.78;;;30.50;22.20
56270;BME280;42176;43.240;27.880;2023-06-05T07:31:09;100691.28;;;31.77;19.30
56270;BME280;42176;43.240;27.880;2023-06-05T07:33:35;100696.28;;;30.99;22.23
56270;BME280;42176;43.240;27.880;2023-06-05T07:36:01;100697.38;;;32.15;21.47
56270;BME280;42176;43.240;27.880;2023-06-05T07:38:27;100681.94;;;30.97;22.55
56270;BME280;42176;43.240;27.880;2023-06-05T07:40:52;100685.25;;;31.55;21.99
56270;BME280;42176;43.240;27.880;2023-06-05T07:43:18;100692.09;;;30.39;23.01
56270;BME280;42176;43.240;27.880;2023-06-05T07:45:43;100696.59;;;30.68;23.62
56270;BME280;42176;43.240;27.880;2023-06-05T07:48:09;100675.78;;;31.13;23.26
56270;BME280;42176;43.240;27.880;2023-06-05T07:50:34;100696.06;;;30.64;25.09
56270;BME280;42176;43.240;27.880;2023-06-05T07:53:00;100694.16;;;32.46;23.75
56270;BME280;42176;43.240;27.880;2023-06-05T07:55:27;100684.97;;;32.02;24.93
56270;BME280;42176;43.240;27.880;2023-06-05T07:57:53;100694.38;;;31.09;26.30
56270;BME280;42176;43.240;27.880;2023-06-05T08:00:20;100704.31;;;31.10;26.18
56270;BME280;42176;43.240;27.880;2023-06-05T08:02:45;100699.03;;;31.45;25.94
56270;BME280;42176;43.240;27.880;2023-06-05T08:05:11;100693.13;;;32.47;24.68
56270;BME280;42176;43.240;27.880;2023-06-05T08:07:36;100718.94;;;32.36;25.16
56270;BME280;42176;43.240;27.880;2023-06-05T08:10:02;100687.16;;;33.03;23.38
56270;BME280;42176;43.240;27.880;2023-06-05T08:12:27;100699.22;;;33.18;23.39
56270;BME280;42176;43.240;27.880;2023-06-05T08:14:53;100688.66;;;33.73;22.75
56270;BME280;42176;43.240;27.880;2023-06-05T08:17:18;100683.25;;;34.78;21.87
56270;BME280;42176;43.240;27.880;2023-06-05T08:19:44;100683.84;;;34.08;22.79
56270;BME280;42176;43.240;27.880;2023-06-05T08:22:09;100677.09;;;30.81;26.80
56270;BME280;42176;43.240;27.880;2023-06-05T08:24:35;100648.56;;;31.29;24.47
56270;BME280;42176;43.240;27.880;2023-06-05T08:27:01;100692.44;;;32.45;24.09
56270;BME280;42176;43.240;27.880;2023-06-05T08:29:27;100678.97;;;33.19;21.78
56270;BME280;42176;43.240;27.880;2023-06-05T08:31:53;100681.22;;;31.85;23.92
56270;BME280;42176;43.240;27.880;2023-06-05T08:34:18;100677.75;;;29.50;27.39
56270;BME280;42176;43.240;27.880;2023-06-05T08:36:44;100684.75;;;28.72;28.20
56270;BME280;42176;43.240;27.880;2023-06-05T08:39:09;100689.53;;;27.43;30.49
56270;BME280;42176;43.240;27.880;2023-06-05T08:41:35;100685.81;;;27.98;29.76
56270;BME280;42176;43.240;27.880;2023-06-05T08:44:02;100694.25;;;27.41;30.37
56270;BME280;42176;43.240;27.880;2023-06-05T08:46:30;100688.19;;;27.49;30.23
56270;BME280;42176;43.240;27.880;2023-06-05T08:49:02;100691.72;;;27.82;30.04
56270;BME280;42176;43.240;27.880;2023-06-05T08:51:31;100696.38;;;29.06;28.22
56270;BME280;42176;43.240;27.880;2023-06-05T08:54:02;100698.97;;;29.17;27.96
56270;BME280;42176;43.240;27.880;2023-06-05T08:56:35;100699.63;;;28.99;29.01
56270;BME280;42176;43.240;27.880;2023-06-05T08:59:04;100692.66;;;29.16;28.48
56270;BME280;42176;43.240;27.880;2023-06-05T09:01:30;100689.44;;;29.01;28.00
56270;BME280;42176;43.240;27.880;2023-06-05T09:03:58;100706.50;;;27.79;30.15
56270;BME280;42176;43.240;27.880;2023-06-05T09:06:46;100688.78;;;27.41;31.29
56270;BME280;42176;43.240;27.880;2023-06-05T09:09:14;100686.75;;;26.55;32.26
56270;BME280;42176;43.240;27.880;2023-06-05T09:11:40;100681.78;;;26.49;32.25
56270;BME280;42176;43.240;27.880;2023-06-05T09:14:06;100686.75;;;26.78;31.37
56270;BME280;42176;43.240;27.880;2023-06-05T09:18:58;100690.16;;;25.41;33.25
56270;BME280;42176;43.240;27.880;2023-06-05T09:21:25;100691.91;;;24.67;34.58
56270;BME280;42176;43.240;27.880;2023-06-05T09:24:17;100692.63;;;24.06;36.23
56270;BME280;42176;43.240;27.880;2023-06-05T09:29:12;100704.09;;;22.87;36.91
56270;BME280;42176;43.240;27.880;2023-06-05T09:31:41;100690.13;;;22.51;37.84
56270;BME280;42176;43.240;27.880;2023-06-05T09:34:09;100689.44;;;22.33;39.85
56270;BME280;42176;43.240;27.880;2023-06-05T09:36:44;100685.41;;;22.41;40.95
56270;BME280;42176;43.240;27.880;2023-06-05T09:39:17;100689.81;;;22.13;39.09
56270;BME280;42176;43.240;27.880;2023-06-05T09:41:48;100695.78;;;22.18;39.12
56270;BME280;42176;43.240;27.880;2023-06-05T09:44:15;100683.44;;;22.14;38.74
56270;BME280;42176;43.240;27.880;2023-06-05T09:47:00;100695.97;;;22.15;40.78
56270;BME280;42176;43.240;27.880;2023-06-05T09:49:45;100697.69;;;22.01;38.25
56270;BME280;42176;43.240;27.880;2023-06-05T09:52:12;100698.03;;;21.81;37.76
56270;BME280;42176;43.240;27.880;2023-06-05T09:54:39;100711.38;;;21.98;37.96
56270;BME280;42176;43.240;27.880;2023-06-05T09:57:08;100704.09;;;22.29;38.60
56270;BME280;42176;43.240;27.880;2023-06-05T09:59:57;100710.19;;;22.18;38.16
56270;BME280;42176;43.240;27.880;2023-06-05T10:02:33;100691.16;;;21.91;37.63
56270;BME280;42176;43.240;27.880;2023-06-05T10:05:01;100693.16;;;21.87;37.69
56270;BME280;42176;43.240;27.880;2023-06-05T10:07:30;100694.84;;;21.74;37.97
56270;BME280;42176;43.240;27.880;2023-06-05T10:09:57;100703.28;;;21.98;40.45
56270;BME280;42176;43.240;27.880;2023-06-05T10:12:24;100694.63;;;21.93;38.54
56270;BME280;42176;43.240;27.880;2023-06-05T10:14:52;100703.44;;;21.81;36.94
56270;BME280;42176;43.240;27.880;2023-06-05T10:17:21;100670.13;;;21.96;36.01
56270;BME280;42176;43.240;27.880;2023-06-05T10:19:46;100691.28;;;22.18;38.78
56270;BME280;42176;43.240;27.880;2023-06-05T10:22:12;100674.00;;;22.07;39.54
56270;BME280;42176;43.240;27.880;2023-06-05T10:24:46;100682.78;;;22.10;39.15
56270;BME280;42176;43.240;27.880;2023-06-05T10:30:03;100704.44;;;21.80;39.64
56270;BME280;42176;43.240;27.880;2023-06-05T10:38:38;100690.94;;;21.80;40.15
56270;BME280;42176;43.240;27.880;2023-06-05T10:41:04;100705.06;;;21.69;37.90
56270;BME280;42176;43.240;27.880;2023-06-05T10:43:48;100694.75;;;21.75;39.77
56270;BME280;42176;43.240;27.880;2023-06-05T10:49:11;100713.34;;;21.66;41.36
56270;BME280;42176;43.240;27.880;2023-06-05T10:59:26;100690.31;;;21.28;41.17
56270;BME280;42176;43.240;27.880;2023-06-05T11:07:40;100689.31;;;21.14;40.59
56270;BME280;42176;43.240;27.880;2023-06-05T11:10:18;100669.47;;;21.16;40.08
56270;BME280;42176;43.240;27.880;2023-06-05T11:12:54;100673.81;;;21.02;39.91
56270;BME280;42176;43.240;27.880;2023-06-05T11:15:36;100681.78;;;21.20;38.84
56270;BME280;42176;43.240;27.880;2023-06-05T11:23:11;100690.41;;;20.94;40.38
56270;BME280;42176;43.240;27.880;2023-06-05T11:25:37;100683.38;;;20.92;40.30
56270;BME280;42176;43.240;27.880;2023-06-05T11:28:05;100687.28;;;20.70;42.80
56270;BME280;42176;43.240;27.880;2023-06-05T11:30:44;100696.13;;;20.72;39.52
56270;BME280;42176;43.240;27.880;2023-06-05T11:33:15;100684.75;;;20.67;41.13
56270;BME280;42176;43.240;27.880;2023-06-05T11:35:43;100687.44;;;20.67;40.64
56270;BME280;42176;43.240;27.880;2023-06-05T11:38:15;100688.81;;;20.58;41.96
56270;BME280;42176;43.240;27.880;2023-06-05T11:40:42;100687.16;;;20.56;43.28
56270;BME280;42176;43.240;27.880;2023-06-05T11:43:09;100648.38;;;20.42;42.89
56270;BME280;42176;43.240;27.880;2023-06-05T11:45:36;100672.19;;;20.50;42.96
56270;BME280;42176;43.240;27.880;2023-06-05T11:50:34;100680.53;;;20.45;43.71
56270;BME280;42176;43.240;27.880;2023-06-05T11:53:07;100684.69;;;20.35;44.72
56270;BME280;42176;43.240;27.880;2023-06-05T11:55:33;100675.66;;;20.36;45.44
56270;BME280;42176;43.240;27.880;2023-06-05T11:58:26;100684.53;;;20.38;44.94
56270;BME280;42176;43.240;27.880;2023-06-05T12:00:52;100676.91;;;20.46;46.00
56270;BME280;42176;43.240;27.880;2023-06-05T12:03:29;100665.97;;;20.49;46.86
56270;BME280;42176;43.240;27.880;2023-06-05T12:05:54;100676.16;;;20.76;46.91
56270;BME280;42176;43.240;27.880;2023-06-05T12:08:23;100679.50;;;20.81;45.14
56270;BME280;42176;43.240;27.880;2023-06-05T12:10:53;100668.22;;;20.73;45.54
56270;BME280;42176;43.240;27.880;2023-06-05T12:13:19;100681.94;;;20.52;45.13
56270;BME280;42176;43.240;27.880;2023-06-05T12:16:00;100682.75;;;20.54;44.63
56270;BME280;42176;43.240;27.880;2023-06-05T12:18:32;100687.16;;;20.56;45.35
56270;BME280;42176;43.240;27.880;2023-06-05T12:20:59;100718.06;;;20.48;44.20
56270;BME280;42176;43.240;27.880;2023-06-05T12:23:24;100690.03;;;20.52;45.00
56270;BME280;42176;43.240;27.880;2023-06-05T12:26:00;100681.06;;;20.36;44.88
56270;BME280;42176;43.240;27.880;2023-06-05T12:28:27;100682.03;;;20.17;46.24
56270;BME280;42176;43.240;27.880;2023-06-05T12:30:53;100680.13;;;20.19;45.08
56270;BME280;42176;43.240;27.880;2023-06-05T12:33:19;100688.34;;;20.34;45.84
56270;BME280;42176;43.240;27.880;2023-06-05T12:35:46;100684.56;;;20.54;45.26
56270;BME280;42176;43.240;27.880;2023-06-05T12:38:11;100681.44;;;20.46;44.01
56270;BME280;42176;43.240;27.880;2023-06-05T12:40:37;100689.25;;;20.50;44.27
56270;BME280;42176;43.240;27.880;2023-06-05T12:43:02;100681.31;;;20.47;45.02
56270;BME280;42176;43.240;27.880;2023-06-05T12:45:28;100694.94;;;20.44;45.33
56270;BME280;42176;43.240;27.880;2023-06-05T12:47:55;100685.91;;;20.45;45.76
56270;BME280;42176;43.240;27.880;2023-06-05T12:50:21;100684.81;;;20.49;45.20
56270;BME280;42176;43.240;27.880;2023-06-05T12:52:47;100683.13;;;20.31;45.42
56270;BME280;42176;43.240;27.880;2023-06-05T12:55:12;100690.69;;;20.40;44.73
56270;BME280;42176;43.240;27.880;2023-06-05T12:57:38;100686.97;;;20.43;45.11
56270;BME280;42176;43.240;27.880;2023-06-05T13:00:05;100692.19;;;20.46;45.76
56270;BME280;42176;43.240;27.880;2023-06-05T13:02:42;100687.91;;;20.75;45.37
56270;BME280;42176;43.240;27.880;2023-06-05T13:05:11;100685.25;;;20.58;45.03
56270;BME280;42176;43.240;27.880;2023-06-05T13:07:37;100684.69;;;20.35;45.26
56270;BME280;42176;43.240;27.880;2023-06-05T13:10:04;100678.97;;;20.41;44.16
56270;BME280;42176;43.240;27.880;2023-06-05T13:12:30;100680.75;;;20.24;45.63
56270;BME280;42176;43.240;27.880;2023-06-05T13:14:56;100677.72;;;20.31;45.98
56270;BME280;42176;43.240;27.880;2023-06-05T13:17:22;100664.53;;;20.42;46.43
56270;BME280;42176;43.240;27.880;2023-06-05T13:19:52;100674.25;;;20.29;45.42
56270;BME280;42176;43.240;27.880;2023-06-05T13:22:17;100662.78;;;20.25;47.06
56270;BME280;42176;43.240;27.880;2023-06-05T13:24:43;100659.84;;;20.30;48.46